Flight Track Log - Related Links

Times and Time Zones

All times are in EDT time to prevent confusion due to time zone crossing. See the SWA440 flight status page for this flight to view local times or setup timezone preferences in your user account.

Time Position Orientation Groundspeed Altitude Reporting Facility
EDT Latitude Longitude Course Direction KTS MPH feet Rate Location/Type
Sun 09:12:37 AM 41.8000 -87.7333 90° East 154 177 2,000  Level Chicago TRACON
Sun 09:13:31 AM 41.8000 -87.6667 90° East 198 228 4,300 1,765 Climbing Chicago TRACON
Sun 09:14:19 AM 41.8117 -87.6069 75° East 224 258 5,000 385 Climbing Chicago Center
Sun 09:15:20 AM 41.8206 -87.5017 84° East 261 300 5,000 1,463 Level Chicago Center
Sun 09:16:22 AM 41.8281 -87.3900 85° East 288 331 8,000 3,463 Climbing Chicago Center
Sun 09:17:23 AM 41.8014 -87.2717 107° East 324 373 12,100 3,902 Climbing Chicago Center
Sun 09:18:25 AM 41.7781 -87.1389 103° East 361 415 16,000 4,341 Climbing Chicago Center
Sun 09:19:26 AM 41.7611 -86.9650 97° East 398 458 21,000 4,195 Climbing Chicago Center
Sun 09:20:28 AM 41.7647 -86.8125 88° East 410 472 24,600 3,171 Climbing Chicago Center
Sun 09:21:29 AM 41.7658 -86.6642 89° East 429 494 27,500 3,246 Climbing Chicago Center
Sun 09:22:30 AM 41.7661 -86.5042 90° East 431 496 31,200 2,683 Climbing Chicago Center
Sun 09:23:32 AM 41.7683 -86.3494 89° East 419 482 33,000 871 Climbing Chicago Center
Sun 09:24:34 AM 41.7858 -86.1600 83° East 426 490 33,000 439 Level Chicago Center
Sun 09:25:35 AM 41.8039 -85.9956 82° East 443 510 33,900 976 Climbing Chicago Center
Sun 09:26:37 AM 41.8222 -85.8200 82° East 472 543 35,000 537 Climbing Chicago Center
Sun 09:27:38 AM 41.8408 -85.6450 82° East 471 542 35,000  Level Chicago Center
Sun 09:28:40 AM 41.8589 -85.4714 82° East 466 536 35,000  Level Chicago Center
Sun 09:29:23 AM 41.8753 -85.3553 79° East 472 543 35,000  Level Cleveland Center
Sun 09:30:23 AM 41.8906 -85.1833 83° East 466 536 35,000  Level Cleveland Center
Sun 09:31:23 AM 41.9056 -85.0142 83° East 460 529 35,000  Level Cleveland Center
Sun 09:32:23 AM 41.9247 -84.8397 82° East 460 529 35,000  Level Cleveland Center
Sun 09:33:23 AM 41.9414 -84.6703 82° East 465 535 35,000 -200 Level Cleveland Center
Sun 09:34:23 AM 41.9581 -84.4928 83° East 465 535 34,600 -700 Descending Cleveland Center
Sun 09:35:23 AM 41.9722 -84.3175 84° East 465 535 33,600 -1,450 Descending Cleveland Center
Sun 09:36:23 AM 41.9886 -84.1256 83° East 460 529 31,700 -1,300 Descending Cleveland Center
Sun 09:37:23 AM 42.0022 -83.9475 84° East 465 535 31,000 -350 Descending Cleveland Center
Sun 09:38:23 AM 42.0178 -83.7694 83° East 470 541 31,000 -550 Level Cleveland Center
Sun 09:39:23 AM 42.0331 -83.5914 83° East 476 548 29,900 -1,750 Descending Cleveland Center
Sun 09:40:23 AM 42.0417 -83.4211 86° East 466 536 27,500 -2,400 Descending Cleveland Center
Sun 09:41:23 AM 42.0247 -83.2497 98° East 458 527 25,100 -2,389 Descending Cleveland Center
Sun 09:42:11 AM 42.0153 -83.1208 96° East 443 510 23,200 -2,000 Descending Cleveland Center
Sun 09:42:47 AM 42.0050 -83.0228 98° East 435 501 22,300 -1,583 Descending Cleveland Center
Sun 09:43:23 AM 41.9961 -82.9414 98° East 439 505 21,300 -2,000 Descending Cleveland Center
Sun 09:43:44 AM 41.9911 -82.8769 96° East 428 493 20,400 -2,595 Descending Cleveland Center
Sun 09:44:00 AM 41.9881 -82.8292 95° East 423 487 19,700 -1,846 Descending Cleveland Center
Sun 09:44:23 AM 41.9806 -82.7869 103° East 429 494 19,200 -2,182 Descending Cleveland Center
Sun 09:44:55 AM 41.9719 -82.6861 97° East 415 478 17,700 -2,100 Descending Cleveland Center
Sun 09:45:23 AM 41.9667 -82.6358 98° East 417 480 17,100 -1,977 Descending Cleveland Center
Sun 09:46:23 AM 41.9378 -82.4897 105° East 406 467 14,800 -2,458 Descending Cleveland Center
Sun 09:46:46 AM 41.9181 -82.4278 113° Southeast 407 468 13,700 -2,400 Descending Cleveland Center
Sun 09:47:23 AM 41.8964 -82.3517 111° Southeast 400 460 12,400 -2,361 Descending Cleveland Center
Sun 09:47:47 AM 41.8742 -82.2897 116° Southeast 395 455 11,300 -2,200 Descending Cleveland Center
Sun 09:48:23 AM 41.8525 -82.2194 112° Southeast 394 453 10,200 -1,300 Descending Cleveland Center
Sun 09:48:47 AM 41.8283 -82.1547 117° Southeast 366 421 10,000 -300 Descending Cleveland Center
Sun 09:49:03 AM 41.8139 -82.1322 131° Southeast 355 409 10,000  Level Cleveland Center
Sun 09:49:23 AM 41.7956 -82.1122 141° Southeast 373 429 10,000 133 Level Cleveland Center
Sun 09:49:48 AM 41.7564 -82.0750 145° Southeast 339 390 10,100  Climbing Cleveland Center
Sun 09:50:04 AM 41.7381 -82.0497 134° Southeast 336 387 10,000 -343 Descending Cleveland Center
Sun 09:50:23 AM 41.7214 -82.0353 147° Southeast 346 398 9,900 -1,200 Descending Cleveland Center
Sun 09:50:49 AM 41.6822 -81.9956 143° Southeast 329 379 9,100 -1,375 Descending Cleveland Center
Sun 09:51:11 AM 41.6681 -81.9731 130° Southeast 328 377 8,800 -1,300 Descending Cleveland Center
Sun 09:51:49 AM 41.6144 -81.9192 143° Southeast 314 361 7,800 -1,417 Descending Cleveland Center
Sun 09:52:23 AM 41.5836 -81.8850 140° Southeast 323 372 7,100 -787 Descending Cleveland Center
Sun 09:52:50 AM 41.5486 -81.8483 142° Southeast 293 337 7,000 -109 Descending Cleveland Center
Sun 09:53:18 AM 41.5344 -81.8119 117° Southeast 282 325 7,000 -400 Level Cleveland Center
Sun 09:53:50 AM 41.5556 -81.7708 56° Northeast 224 258 6,600 -857 Descending Cleveland Center
Sun 09:54:07 AM 41.5661 -81.7572 44° Northeast 229 264 6,300 -1,082 Descending Cleveland Center
Sun 09:54:51 AM 41.5522 -81.7014 108° East 220 253 5,500 -1,200 Descending Cleveland Center
Sun 09:55:52 AM 41.5019 -81.7114 188° South 174 200 4,200 -1,289 Descending Cleveland Center
Sun 09:56:52 AM 41.4725 -81.7608 232° Southwest 173 199 2,900 -1,190 Descending Cleveland Center
Sun 09:57:53 AM 41.4447 -81.8019 228° Southwest 129 148 1,800 -885 Descending Cleveland Center
Sun 09:58:54 AM 41.4217 -81.8347 227° Southwest 115 132 1,100 -689 Descending Cleveland Center

Login

Don't have an account? Register now (free) for customized features, flight alerts, and more!